Time;durP1;ratioP1;P1;durP2;ratioP2;P2;SDS_P1;SDS_P2;PMS_P1;PMS_P2;Temp;Humidity;BMP_temperature;BMP_pressure;BME280_temperature;BME280_humidity;BME280_pressure;Samples;Min_cycle;Max_cycle;Signal;HPM_P1;HPM_P2
2023/05/15 00:00:27;;;;;;;5.53;4.50;;;;;;;10.26;83.40;94757.50;5042042;28;20078;-72
2023/05/15 00:02:52;;;;;;;8.75;7.95;;;;;;;10.38;83.40;94776.44;5086033;28;20066;-72
2023/05/15 00:05:17;;;;;;;5.82;5.22;;;;;;;10.27;83.55;94747.94;5103482;28;20139;-72
2023/05/15 00:07:43;;;;;;;10.48;5.15;;;;;;;10.35;82.78;94744.72;5094550;28;20038;-73
2023/05/15 00:10:15;;;;;;;4.80;4.30;;;;;;;10.35;82.97;94742.13;5062917;27;20788;-71
2023/05/15 00:12:40;;;;;;;5.28;4.35;;;;;;;10.11;83.41;94727.59;5063944;28;20036;-71
2023/05/15 00:15:07;;;;;;;5.18;4.03;;;;;;;10.11;83.09;94734.56;5065118;28;20064;-71
2023/05/15 00:17:32;;;;;;;4.63;3.95;;;;;;;9.97;83.08;94715.78;5046515;28;20031;-71
2023/05/15 00:19:59;;;;;;;5.15;4.18;;;;;;;10.04;83.42;94739.44;5063735;28;20020;-71
2023/05/15 00:22:25;;;;;;;4.93;3.97;;;;;;;10.12;83.91;94746.59;5061841;28;20123;-71
2023/05/15 00:24:50;;;;;;;7.07;4.90;;;;;;;10.09;84.31;94760.66;5047466;28;20124;-71
2023/05/15 00:27:16;;;;;;;6.43;4.82;;;;;;;10.11;84.36;94763.91;5062617;28;20525;-71
2023/05/15 00:29:41;;;;;;;5.78;5.03;;;;;;;10.09;84.38;94767.63;5046520;28;20052;-71
2023/05/15 00:32:07;;;;;;;9.02;6.00;;;;;;;9.93;84.90;94771.44;5044431;28;20515;-71
2023/05/15 00:34:32;;;;;;;4.63;4.15;;;;;;;10.04;84.76;94780.97;5062826;28;20028;-71
2023/05/15 00:36:58;;;;;;;5.18;4.40;;;;;;;10.07;83.92;94768.53;5063608;28;20036;-71
2023/05/15 00:39:24;;;;;;;12.05;5.70;;;;;;;10.15;83.22;94762.75;5062655;28;20033;-71
2023/05/15 00:41:49;;;;;;;7.78;4.40;;;;;;;10.20;83.57;94773.56;5062230;28;20534;-71
2023/05/15 00:44:15;;;;;;;4.63;3.80;;;;;;;10.17;83.78;94771.22;5044422;28;20036;-71
2023/05/15 00:46:41;;;;;;;5.15;3.22;;;;;;;10.02;83.51;94785.44;5062318;28;20036;-71
2023/05/15 00:49:12;;;;;;;6.35;3.33;;;;;;;9.98;83.83;94771.09;5063310;28;20042;-71
2023/05/15 00:51:39;;;;;;;4.03;3.13;;;;;;;10.02;84.09;94780.25;5062387;28;20070;-71
2023/05/15 00:54:05;;;;;;;4.13;3.35;;;;;;;9.97;83.80;94772.00;5029717;28;20129;-71
2023/05/15 00:56:30;;;;;;;4.72;3.50;;;;;;;9.84;83.52;94773.00;5061755;28;20075;-71
2023/05/15 00:58:55;;;;;;;4.50;3.17;;;;;;;9.83;83.96;94775.72;5045746;28;20029;-73
2023/05/15 01:01:21;;;;;;;4.50;3.33;;;;;;;9.93;83.69;94786.19;5040892;28;20029;-71
2023/05/15 01:03:46;;;;;;;5.15;3.28;;;;;;;9.94;83.01;94795.63;5045158;28;20453;-71
2023/05/15 01:06:12;;;;;;;5.53;3.28;;;;;;;9.75;83.91;94793.66;5066600;28;20029;-71
2023/05/15 01:08:46;;;;;;;4.22;3.08;;;;;;;9.65;84.36;94785.00;5031524;28;20150;-71
2023/05/15 01:11:13;;;;;;;3.78;2.75;;;;;;;9.73;84.24;94786.03;5056648;28;20045;-71
2023/05/15 01:13:39;;;;;;;5.65;2.97;;;;;;;9.81;83.48;94780.22;5046592;28;20037;-71
2023/05/15 01:16:05;;;;;;;5.22;3.80;;;;;;;9.62;83.65;94767.91;5065613;28;20108;-72
2023/05/15 01:18:31;;;;;;;6.45;4.28;;;;;;;9.65;84.09;94772.03;5045304;28;20501;-71
2023/05/15 01:21:06;;;;;;;4.70;3.92;;;;;;;9.68;84.59;94777.78;5036191;28;20103;-71
2023/05/15 01:26:53;;;;;;;;;;;;;;;9.62;84.68;94783.47;5053620;28;20576;-71
2023/05/15 01:29:25;;;;;;;3.83;2.80;;;;;;;9.65;85.06;94777.22;5052278;28;19921;-71
2023/05/15 01:31:54;;;;;;;7.40;3.45;;;;;;;9.66;84.61;94771.06;5052046;28;20045;-72
2023/05/15 01:34:19;;;;;;;4.40;3.90;;;;;;;9.57;84.94;94759.66;5052251;28;20071;-73
2023/05/15 01:36:47;;;;;;;6.38;4.13;;;;;;;9.65;84.51;94752.09;5018851;28;20029;-73
2023/05/15 01:39:12;;;;;;;6.18;3.80;;;;;;;9.49;84.79;94741.28;5035632;28;20037;-71
2023/05/15 01:41:44;;;;;;;7.00;3.95;;;;;;;9.64;84.46;94750.44;5035364;28;20503;-71
2023/05/15 01:44:19;;;;;;;3.88;3.20;;;;;;;9.63;84.17;94744.41;5036030;28;20475;-71
2023/05/15 01:46:45;;;;;;;4.78;3.53;;;;;;;9.64;84.20;94737.47;5035528;28;20115;-71
2023/05/15 01:49:12;;;;;;;5.03;4.00;;;;;;;9.58;84.15;94737.94;5018760;28;20045;-71
2023/05/15 01:51:38;;;;;;;4.68;3.50;;;;;;;9.51;84.74;94723.84;5051774;28;20113;-72
2023/05/15 01:54:03;;;;;;;4.78;4.18;;;;;;;9.63;84.29;94733.22;5051918;28;20130;-71
2023/05/15 01:56:29;;;;;;;6.68;4.00;;;;;;;9.68;82.81;94725.09;5018636;28;20040;-71
2023/05/15 01:58:54;;;;;;;5.53;3.80;;;;;;;9.51;83.22;94731.63;5035163;28;20064;-71
2023/05/15 02:01:20;;;;;;;5.43;3.75;;;;;;;9.32;84.14;94734.84;5035075;28;20021;-71
2023/05/15 02:03:45;;;;;;;4.47;3.95;;;;;;;9.27;84.22;94727.44;5018516;28;20033;-71
2023/05/15 02:06:11;;;;;;;5.20;4.38;;;;;;;9.18;84.85;94728.16;5051519;28;20407;-72
2023/05/15 02:08:37;;;;;;;5.90;4.47;;;;;;;9.33;84.84;94754.63;5034562;28;20060;-73
2023/05/15 02:11:02;;;;;;;6.25;4.40;;;;;;;9.09;84.63;94710.75;5034867;28;20577;-73
2023/05/15 02:13:28;;;;;;;5.57;4.68;;;;;;;9.39;84.68;94765.38;5051475;28;20037;-71
2023/05/15 02:15:53;;;;;;;7.00;4.97;;;;;;;9.47;84.53;94764.75;5034736;28;20126;-71
2023/05/15 02:18:19;;;;;;;7.60;4.72;;;;;;;9.50;84.58;94753.28;5052604;28;20048;-73
2023/05/15 02:20:44;;;;;;;6.15;5.18;;;;;;;9.46;84.53;94752.72;5034570;28;20036;-73
2023/05/15 02:23:10;;;;;;;6.38;5.22;;;;;;;9.47;84.72;94744.03;5035879;28;20034;-73
2023/05/15 02:26:28;;;;;;;5.30;4.25;;;;;;;9.44;84.63;94761.56;5032479;28;20017;-73
2023/05/15 02:29:03;;;;;;;6.45;4.40;;;;;;;9.28;85.01;94721.31;4956322;28;20142;-73
2023/05/15 02:31:57;;;;;;;7.72;4.32;;;;;;;9.48;84.28;94735.28;5031653;28;20047;-73
2023/05/15 02:35:03;;;;;;;8.43;5.38;;;;;;;9.27;85.45;94724.84;5031870;28;20040;-73
2023/05/15 02:37:30;;;;;;;7.35;6.03;;;;;;;9.19;86.45;94727.19;5030382;28;20077;-73
2023/05/15 02:39:58;;;;;;;8.57;6.90;;;;;;;9.34;86.59;94728.59;5014818;28;20072;-74
2023/05/15 02:42:27;;;;;;;8.77;7.45;;;;;;;9.32;86.89;94716.69;5014646;28;20488;-74
2023/05/15 02:44:52;;;;;;;7.75;6.18;;;;;;;9.42;86.92;94717.63;5031147;28;20030;-73
2023/05/15 02:47:18;;;;;;;7.82;6.07;;;;;;;9.37;87.17;94724.94;4997977;28;20041;-73
2023/05/15 02:49:44;;;;;;;7.85;5.88;;;;;;;9.35;87.03;94719.06;5030918;28;20033;-73
2023/05/15 02:52:09;;;;;;;8.75;6.30;;;;;;;9.50;86.63;94728.22;5014236;28;20033;-73
2023/05/15 02:54:35;;;;;;;8.23;6.63;;;;;;;9.55;86.40;94731.25;5030884;28;20029;-71
2023/05/15 02:57:00;;;;;;;7.68;6.10;;;;;;;9.60;86.18;94741.25;5030578;28;20037;-71
2023/05/15 02:59:26;;;;;;;7.47;6.03;;;;;;;9.67;85.39;94731.19;5032178;28;20030;-71
2023/05/15 03:01:51;;;;;;;8.32;6.25;;;;;;;9.70;83.94;94716.22;5030512;28;20029;-71
2023/05/15 03:04:16;;;;;;;7.10;5.95;;;;;;;9.53;84.65;94721.97;5014231;28;20025;-72
2023/05/15 03:06:42;;;;;;;6.80;5.57;;;;;;;9.49;84.94;94715.34;5030432;28;20037;-73
2023/05/15 03:09:07;;;;;;;6.68;5.32;;;;;;;9.59;84.88;94718.88;5030146;28;20050;-73
2023/05/15 03:11:33;;;;;;;8.35;5.97;;;;;;;9.57;84.82;94734.53;5013977;28;20060;-71
2023/05/15 03:14:01;;;;;;;12.77;5.95;;;;;;;9.61;84.57;94740.28;5030431;28;20507;-71
2023/05/15 03:16:27;;;;;;;7.53;5.47;;;;;;;9.49;84.33;94728.31;5030218;28;20025;-71
2023/05/15 03:18:52;;;;;;;7.03;5.35;;;;;;;9.50;84.57;94722.19;5013792;28;20041;-71
2023/05/15 03:21:18;;;;;;;7.75;5.30;;;;;;;9.45;85.10;94740.72;5030145;28;20022;-71
2023/05/15 03:23:43;;;;;;;6.30;5.47;;;;;;;9.50;84.99;94741.19;5013816;28;20037;-71
2023/05/15 03:26:09;;;;;;;6.38;5.20;;;;;;;9.46;85.35;94747.53;4997366;28;20071;-71
2023/05/15 03:28:34;;;;;;;5.30;4.38;;;;;;;9.48;85.80;94742.25;5030071;28;20049;-73
2023/05/15 03:31:00;;;;;;;5.18;4.68;;;;;;;9.49;84.97;94723.13;5031229;28;20523;-71
2023/05/15 03:33:25;;;;;;;6.05;4.93;;;;;;;9.41;85.56;94728.94;5029990;28;20044;-72
2023/05/15 03:35:51;;;;;;;6.38;4.72;;;;;;;9.51;85.63;94739.41;5029902;28;20029;-71
2023/05/15 03:38:17;;;;;;;7.82;5.22;;;;;;;9.49;85.70;94742.09;5031082;28;20037;-71
2023/05/15 03:40:42;;;;;;;6.82;5.55;;;;;;;9.48;85.44;94719.72;5031096;28;20488;-71
2023/05/15 03:43:08;;;;;;;6.75;5.30;;;;;;;9.63;84.75;94738.41;5029630;28;20092;-72
2023/05/15 03:45:36;;;;;;;5.28;4.60;;;;;;;9.64;85.24;94729.72;5029867;28;20036;-71
2023/05/15 03:48:01;;;;;;;6.40;5.47;;;;;;;9.68;84.85;94731.09;5013671;28;20033;-71
2023/05/15 03:50:27;;;;;;;7.20;6.00;;;;;;;9.64;85.16;94719.31;5031068;28;20040;-73
2023/05/15 03:52:52;;;;;;;8.35;7.07;;;;;;;9.65;84.64;94715.78;5031410;28;20396;-73
2023/05/15 03:55:18;;;;;;;9.45;7.32;;;;;;;9.49;84.92;94708.41;5029788;28;20033;-73
2023/05/15 03:57:43;;;;;;;14.75;10.18;;;;;;;9.66;85.18;94735.56;5030830;28;20065;-73
2023/05/15 04:00:09;;;;;;;11.52;9.38;;;;;;;9.71;85.41;94730.03;5029899;28;20070;-73
2023/05/15 04:02:35;;;;;;;11.20;8.57;;;;;;;9.79;85.37;94741.41;5030784;28;20028;-71
2023/05/15 04:05:02;;;;;;;13.23;8.40;;;;;;;9.74;85.69;94732.38;5041963;28;20124;-71
2023/05/15 04:07:28;;;;;;;9.02;7.68;;;;;;;9.87;85.22;94742.59;5032497;28;20510;-71
2023/05/15 04:09:53;;;;;;;12.68;8.40;;;;;;;9.78;85.44;94736.38;5050150;28;20091;-71
2023/05/15 04:12:19;;;;;;;7.55;6.68;;;;;;;9.76;85.22;94723.50;5049440;28;20086;-71
2023/05/15 04:14:44;;;;;;;8.50;7.43;;;;;;;9.87;85.17;94727.03;5048485;28;20037;-71
2023/05/15 04:17:10;;;;;;;9.05;7.45;;;;;;;9.89;85.01;94725.09;5049053;28;20029;-71
2023/05/15 04:19:35;;;;;;;9.88;7.60;;;;;;;9.99;85.00;94744.16;5050829;28;20033;-72
2023/05/15 04:22:01;;;;;;;9.75;8.13;;;;;;;9.93;85.51;94749.88;5050549;28;20059;-71
2023/05/15 04:24:26;;;;;;;10.68;8.05;;;;;;;9.99;85.21;94738.97;5050850;28;20060;-71
2023/05/15 04:26:51;;;;;;;8.90;7.97;;;;;;;9.99;85.28;94757.16;5049254;28;20060;-71
2023/05/15 04:29:17;;;;;;;10.13;8.63;;;;;;;10.10;85.18;94746.72;5049370;28;20047;-71
2023/05/15 04:31:42;;;;;;;10.57;8.40;;;;;;;10.11;84.78;94755.31;5050376;28;20032;-71
2023/05/15 04:34:08;;;;;;;11.13;8.27;;;;;;;10.10;85.07;94751.91;5032675;28;20099;-71
2023/05/15 04:36:33;;;;;;;9.88;8.02;;;;;;;10.07;84.86;94759.94;5032580;28;20028;-72
2023/05/15 04:38:59;;;;;;;10.48;9.23;;;;;;;9.94;85.72;94756.69;5049304;28;20044;-71
2023/05/15 04:41:25;;;;;;;9.05;7.90;;;;;;;10.01;85.79;94757.84;5049145;28;20025;-71
2023/05/15 04:43:51;;;;;;;10.32;8.35;;;;;;;10.02;85.86;94743.91;5049240;28;20036;-71
2023/05/15 04:46:16;;;;;;;9.70;8.38;;;;;;;10.13;85.69;94741.25;5049156;28;20029;-71
2023/05/15 04:48:41;;;;;;;10.02;8.20;;;;;;;10.25;85.30;94744.63;5049023;28;20552;-71
2023/05/15 04:51:07;;;;;;;13.52;9.07;;;;;;;10.23;85.13;94721.41;5050351;28;20415;-71
2023/05/15 04:53:32;;;;;;;12.05;10.05;;;;;;;10.17;84.85;94715.88;5049102;28;20067;-72
2023/05/15 04:55:58;;;;;;;11.57;9.32;;;;;;;10.29;84.76;94718.31;5052179;28;20391;-72
2023/05/15 04:58:23;;;;;;;12.18;10.32;;;;;;;10.30;84.96;94711.34;5036252;28;20029;-71
2023/05/15 05:00:49;;;;;;;12.57;9.18;;;;;;;10.34;84.80;94701.53;5052790;28;20029;-72
2023/05/15 05:03:14;;;;;;;10.73;9.13;;;;;;;10.28;84.76;94710.66;5035991;28;20123;-71
2023/05/15 05:05:40;;;;;;;7.88;6.40;;;;;;;10.42;83.86;94712.94;5036037;28;20067;-71
2023/05/15 05:08:05;;;;;;;8.82;7.45;;;;;;;10.56;83.33;94714.38;5019206;28;20094;-71
2023/05/15 05:10:30;;;;;;;9.43;7.57;;;;;;;10.36;84.31;94710.00;5053829;28;20040;-71
2023/05/15 05:12:56;;;;;;;9.45;6.80;;;;;;;10.48;83.44;94709.81;5052464;28;20036;-73
2023/05/15 05:15:21;;;;;;;7.75;5.82;;;;;;;10.54;82.74;94718.06;5035963;28;20469;-72
2023/05/15 05:17:47;;;;;;;7.22;6.10;;;;;;;10.35;84.26;94704.00;5053493;28;20388;-71
2023/05/15 05:20:12;;;;;;;7.22;6.07;;;;;;;10.43;84.66;94699.00;5052409;28;20418;-73
2023/05/15 05:22:39;;;;;;;7.70;5.90;;;;;;;10.50;84.01;94697.53;5052303;28;20025;-71
2023/05/15 05:25:05;;;;;;;7.40;5.88;;;;;;;10.55;83.51;94707.50;5052414;28;20040;-71
2023/05/15 05:27:30;;;;;;;8.52;6.20;;;;;;;10.57;83.53;94697.81;5052212;28;20487;-71
2023/05/15 05:29:56;;;;;;;6.65;5.60;;;;;;;10.68;83.78;94692.53;5052301;28;20032;-71
2023/05/15 05:32:21;;;;;;;9.32;6.35;;;;;;;10.67;84.25;94690.91;5052178;28;20495;-71
2023/05/15 05:34:47;;;;;;;8.35;6.40;;;;;;;10.85;84.16;94695.47;5052000;28;20545;-71
2023/05/15 05:37:12;;;;;;;9.52;6.68;;;;;;;10.81;83.38;94699.28;5052085;28;20029;-71
2023/05/15 05:39:38;;;;;;;8.23;6.30;;;;;;;10.89;84.15;94702.91;5052222;28;20041;-73
2023/05/15 05:42:03;;;;;;;9.88;7.65;;;;;;;10.88;83.44;94700.41;5053157;28;20094;-71
2023/05/15 05:44:29;;;;;;;9.30;7.63;;;;;;;10.94;83.53;94708.50;5051524;28;20398;-72
2023/05/15 05:46:54;;;;;;;10.63;6.38;;;;;;;11.00;83.54;94707.16;5053009;28;20083;-71
2023/05/15 05:49:20;;;;;;;9.25;7.13;;;;;;;11.11;82.57;94696.63;5051725;28;20503;-71
2023/05/15 05:51:46;;;;;;;9.80;7.22;;;;;;;11.23;81.62;94709.53;5053024;28;20479;-72
2023/05/15 05:54:13;;;;;;;9.20;7.43;;;;;;;11.33;81.18;94710.38;5051970;28;20091;-71
2023/05/15 05:56:39;;;;;;;9.38;7.75;;;;;;;11.50;78.09;94708.91;5035420;28;20025;-71
2023/05/15 05:59:05;;;;;;;9.43;7.63;;;;;;;11.54;78.88;94711.09;5035103;28;20052;-71
2023/05/15 06:01:30;;;;;;;10.35;7.30;;;;;;;11.60;78.99;94718.38;5049241;28;20036;-71
2023/05/15 06:03:56;;;;;;;8.38;7.05;;;;;;;11.66;78.78;94710.97;5018535;28;20033;-71
2023/05/15 06:06:21;;;;;;;12.15;7.13;;;;;;;11.69;77.42;94714.13;5051445;28;20029;-71
2023/05/15 06:08:47;;;;;;;8.73;7.13;;;;;;;11.70;77.39;94710.59;5052411;28;20057;-72
2023/05/15 06:11:12;;;;;;;8.63;7.22;;;;;;;11.74;77.33;94717.16;5045004;28;20514;-72
2023/05/15 06:13:38;;;;;;;8.50;6.63;;;;;;;11.81;77.37;94722.63;5042411;28;20492;-73
2023/05/15 06:16:03;;;;;;;10.35;7.32;;;;;;;11.92;76.84;94713.88;5037821;28;20030;-73
2023/05/15 06:18:29;;;;;;;9.05;7.10;;;;;;;11.96;77.31;94718.69;4998574;28;20045;-74
2023/05/15 06:20:55;;;;;;;10.10;7.90;;;;;;;12.00;78.23;94703.59;5017359;28;20052;-74
2023/05/15 06:23:20;;;;;;;14.45;10.73;;;;;;;11.96;77.84;94717.88;5025094;28;20041;-72
2023/05/15 06:25:45;;;;;;;11.50;9.73;;;;;;;12.05;78.08;94707.44;5028594;28;20036;-72
2023/05/15 06:28:11;;;;;;;9.27;7.32;;;;;;;12.02;77.67;94699.91;5040976;28;20671;-71
2023/05/15 06:30:36;;;;;;;8.75;6.88;;;;;;;11.98;76.76;94695.94;5048184;28;20048;-70
2023/05/15 06:33:02;;;;;;;9.23;7.13;;;;;;;12.02;76.44;94706.91;5052090;28;20036;-72
2023/05/15 06:35:27;;;;;;;10.20;7.97;;;;;;;12.12;77.12;94712.09;5050327;28;20029;-72
2023/05/15 06:37:53;;;;;;;11.40;7.85;;;;;;;12.45;77.68;94710.78;5028272;28;20021;-71
2023/05/15 06:40:19;;;;;;;9.18;7.07;;;;;;;12.55;76.84;94693.34;5032819;28;20041;-71
2023/05/15 06:42:46;;;;;;;7.82;6.10;;;;;;;12.60;74.13;94696.38;5009993;28;20090;-71
2023/05/15 06:45:11;;;;;;;9.93;6.13;;;;;;;12.80;73.72;94711.94;5017961;28;20120;-72
2023/05/15 06:47:36;;;;;;;8.02;6.35;;;;;;;12.90;74.01;94708.34;5051904;28;20025;-72
2023/05/15 06:50:03;;;;;;;8.90;6.50;;;;;;;12.88;74.41;94725.91;5018081;28;20033;-72
2023/05/15 06:52:29;;;;;;;11.10;8.50;;;;;;;12.57;75.52;94722.72;5028562;28;20091;-71
2023/05/15 06:54:54;;;;;;;11.32;8.27;;;;;;;12.55;75.93;94723.81;5036922;28;20041;-71
2023/05/15 06:57:20;;;;;;;11.77;7.90;;;;;;;12.65;75.35;94733.25;5030831;28;20029;-72
2023/05/15 06:59:45;;;;;;;11.63;8.32;;;;;;;12.78;74.81;94727.72;5045998;28;20043;-72
2023/05/15 07:02:11;;;;;;;9.90;7.70;;;;;;;13.00;75.23;94723.09;5028353;28;20026;-72
2023/05/15 07:04:36;;;;;;;11.20;8.48;;;;;;;13.16;74.89;94718.91;5033988;28;20025;-71
2023/05/15 07:07:02;;;;;;;9.80;8.18;;;;;;;13.22;72.87;94721.91;5048352;28;20017;-72
2023/05/15 07:09:27;;;;;;;8.35;7.05;;;;;;;13.25;72.98;94725.03;5014822;28;20135;-72
2023/05/15 07:11:53;;;;;;;10.00;7.57;;;;;;;13.44;72.97;94721.53;5033339;28;20033;-72
2023/05/15 07:14:18;;;;;;;12.35;7.68;;;;;;;13.45;72.11;94727.56;5033459;28;20040;-72
2023/05/15 07:16:45;;;;;;;9.70;7.18;;;;;;;13.55;71.88;94720.50;5033848;28;20452;-72
2023/05/15 07:19:11;;;;;;;10.05;7.53;;;;;;;13.43;70.98;94713.84;5033429;28;20210;-72
2023/05/15 07:21:37;;;;;;;10.35;6.88;;;;;;;13.39;70.86;94728.97;5016389;28;20048;-72
2023/05/15 07:24:03;;;;;;;8.48;7.05;;;;;;;13.40;71.37;94723.63;5031973;28;20124;-72
2023/05/15 07:26:30;;;;;;;9.23;6.95;;;;;;;13.38;70.54;94716.91;5050020;28;20414;-72
2023/05/15 07:28:55;;;;;;;10.35;6.82;;;;;;;13.37;70.78;94710.88;5049688;28;20037;-72
2023/05/15 07:31:21;;;;;;;9.48;6.55;;;;;;;13.26;71.80;94705.00;5032457;28;20029;-72
2023/05/15 07:33:46;;;;;;;8.63;7.30;;;;;;;13.40;71.60;94705.38;5050056;28;20036;-72
2023/05/15 07:36:12;;;;;;;9.90;7.30;;;;;;;13.44;71.83;94705.88;5016832;28;20501;-72
2023/05/15 07:38:37;;;;;;;9.18;7.30;;;;;;;13.60;73.23;94723.50;5049813;28;20045;-72
2023/05/15 07:41:03;;;;;;;8.65;7.40;;;;;;;13.58;70.38;94731.47;5033214;28;20029;-72
2023/05/15 07:43:28;;;;;;;8.20;6.90;;;;;;;13.47;70.10;94705.59;5049836;28;20037;-72
2023/05/15 07:45:54;;;;;;;10.73;7.30;;;;;;;13.62;70.04;94713.72;5033038;28;20158;-72
2023/05/15 07:48:19;;;;;;;10.32;7.47;;;;;;;13.75;70.84;94700.31;5033076;28;20041;-72
2023/05/15 07:50:45;;;;;;;12.55;7.28;;;;;;;13.76;71.25;94710.63;5049692;28;20491;-72
2023/05/15 07:53:15;;;;;;;9.57;6.78;;;;;;;13.49;71.52;94715.88;5033040;28;20043;-72
2023/05/15 07:55:42;;;;;;;10.70;7.28;;;;;;;13.42;70.97;94710.41;5051158;28;20108;-72
2023/05/15 07:58:08;;;;;;;9.43;7.40;;;;;;;13.51;73.64;94714.78;5033144;28;20037;-71
2023/05/15 08:00:34;;;;;;;9.77;7.63;;;;;;;13.34;72.07;94711.13;5049625;28;20033;-75
2023/05/15 08:02:59;;;;;;;10.85;7.70;;;;;;;13.74;71.08;94727.41;5033110;28;20106;-73
2023/05/15 08:05:25;;;;;;;10.10;7.78;;;;;;;13.84;69.28;94723.72;5049748;28;20033;-73
2023/05/15 08:07:50;;;;;;;11.43;7.85;;;;;;;13.91;69.59;94717.94;5050400;28;20124;-74
2023/05/15 08:10:16;;;;;;;10.02;8.20;;;;;;;14.01;68.57;94718.66;5033033;28;20021;-73
2023/05/15 08:12:45;;;;;;;14.20;8.75;;;;;;;14.34;68.52;94731.97;5016291;28;20029;-73
2023/05/15 08:15:10;;;;;;;11.25;7.75;;;;;;;14.51;67.75;94731.13;5017454;28;20077;-73
2023/05/15 08:17:36;;;;;;;9.68;7.47;;;;;;;14.42;66.01;94730.25;5032821;28;20039;-73
2023/05/15 08:20:01;;;;;;;12.20;7.30;;;;;;;14.51;66.66;94726.75;5049622;28;20045;-73
2023/05/15 08:22:29;;;;;;;10.57;8.23;;;;;;;14.77;67.17;94731.16;5016503;28;20055;-73
2023/05/15 08:24:54;;;;;;;12.00;8.57;;;;;;;14.92;66.54;94719.16;5033331;28;20041;-73
2023/05/15 08:27:20;;;;;;;9.88;7.25;;;;;;;15.09;65.71;94714.00;5016196;28;20029;-73
2023/05/15 08:29:46;;;;;;;8.60;6.20;;;;;;;15.39;64.09;94715.25;5049526;28;20048;-73
2023/05/15 08:32:11;;;;;;;8.35;6.22;;;;;;;15.51;64.43;94707.94;5054625;28;20082;-73
2023/05/15 08:34:37;;;;;;;10.48;6.90;;;;;;;15.52;63.80;94706.97;5036956;28;20091;-73
2023/05/15 08:37:03;;;;;;;10.60;7.38;;;;;;;15.56;63.45;94693.38;5054552;28;20021;-73
2023/05/15 08:39:28;;;;;;;10.10;7.60;;;;;;;15.91;63.18;94706.38;5053627;28;20045;-73
2023/05/15 08:41:59;;;;;;;9.82;7.22;;;;;;;15.88;63.28;94688.38;5020363;28;20068;-73
2023/05/15 08:44:24;;;;;;;10.13;8.43;;;;;;;15.98;62.92;94705.59;5053513;28;20029;-73
2023/05/15 08:46:52;;;;;;;10.60;7.80;;;;;;;16.01;62.44;94694.78;5054309;28;20540;-73
2023/05/15 08:49:40;;;;;;;9.15;7.60;;;;;;;16.03;62.29;94678.91;5053287;28;20431;-73
2023/05/15 08:52:06;;;;;;;11.45;8.35;;;;;;;16.13;62.57;94699.69;5053206;28;20029;-73
2023/05/15 08:54:32;;;;;;;10.43;7.70;;;;;;;15.96;62.01;94702.28;5036649;28;20021;-73
2023/05/15 08:56:57;;;;;;;9.25;6.68;;;;;;;15.85;61.73;94686.91;5036679;28;20033;-74
2023/05/15 08:59:22;;;;;;;8.30;6.25;;;;;;;16.02;61.28;94687.75;5036478;28;20033;-73
2023/05/15 09:01:48;;;;;;;8.25;5.95;;;;;;;15.76;62.67;94678.22;5036583;28;20045;-73
2023/05/15 09:04:14;;;;;;;9.65;8.00;;;;;;;15.67;63.79;94688.81;5020047;28;20040;-73
2023/05/15 09:06:40;;;;;;;9.57;7.90;;;;;;;15.61;63.87;94683.25;5036366;28;20060;-73
2023/05/15 09:09:05;;;;;;;11.88;8.57;;;;;;;15.49;63.62;94681.06;5035972;28;20072;-73
2023/05/15 09:11:31;;;;;;;13.40;8.88;;;;;;;15.48;63.75;94698.59;5052727;28;20039;-73
2023/05/15 09:13:59;;;;;;;11.75;8.40;;;;;;;15.50;64.18;94706.28;5036161;28;20068;-73
2023/05/15 09:16:25;;;;;;;11.52;8.55;;;;;;;15.33;64.11;94668.78;5019785;28;20523;-74
2023/05/15 09:18:51;;;;;;;11.02;8.07;;;;;;;15.74;64.19;94695.91;5019662;28;20033;-73
2023/05/15 09:21:24;;;;;;;10.15;7.32;;;;;;;15.87;63.91;94682.31;5053030;28;20029;-73
2023/05/15 09:23:49;;;;;;;10.43;8.07;;;;;;;15.64;64.70;94676.88;5054178;28;20060;-73
2023/05/15 09:26:15;;;;;;;8.20;6.35;;;;;;;15.74;63.36;94677.59;5036014;28;20466;-74
2023/05/15 09:28:40;;;;;;;9.82;6.68;;;;;;;15.82;64.01;94674.97;5019642;28;20040;-74
2023/05/15 09:31:07;;;;;;;11.25;7.50;;;;;;;15.97;64.00;94658.59;5052324;28;20079;-73
2023/05/15 09:33:35;;;;;;;9.02;6.30;;;;;;;16.00;62.62;94650.41;5054246;28;20064;-73
2023/05/15 09:36:01;;;;;;;7.57;5.97;;;;;;;16.23;62.03;94655.81;5036905;28;20079;-73
2023/05/15 09:38:27;;;;;;;7.43;5.68;;;;;;;16.24;61.15;94653.03;5036068;28;20506;-74
2023/05/15 09:41:03;;;;;;;7.47;5.70;;;;;;;16.35;60.35;94643.97;5035086;28;20025;-73
2023/05/15 09:43:29;;;;;;;9.52;6.15;;;;;;;16.45;59.63;94644.63;5035682;28;20068;-74
2023/05/15 09:45:55;;;;;;;7.43;5.47;;;;;;;16.52;59.33;94622.00;5019251;28;20215;-73
2023/05/15 09:48:20;;;;;;;11.63;6.90;;;;;;;16.59;59.01;94639.69;5035778;28;20040;-74
2023/05/15 09:50:46;;;;;;;8.77;6.18;;;;;;;16.63;60.71;94635.72;5035464;28;20561;-73
2023/05/15 09:53:12;;;;;;;9.55;6.45;;;;;;;16.53;59.13;94614.97;5019016;28;20068;-73
2023/05/15 09:55:38;;;;;;;8.95;6.25;;;;;;;16.63;58.44;94614.75;5035619;28;20526;-74
2023/05/15 09:58:13;;;;;;;10.30;6.30;;;;;;;16.58;58.32;94623.13;5035240;28;20055;-74
2023/05/15 10:00:40;;;;;;;8.05;6.43;;;;;;;16.49;59.53;94624.97;5035223;28;20044;-73
2023/05/15 10:03:06;;;;;;;10.05;6.28;;;;;;;16.49;58.45;94626.75;5035307;28;20483;-73
2023/05/15 10:05:31;;;;;;;8.00;6.88;;;;;;;16.45;59.93;94623.66;5035575;28;20021;-74
2023/05/15 10:07:57;;;;;;;9.35;6.65;;;;;;;16.37;58.96;94628.09;5051632;28;20055;-74
2023/05/15 10:10:23;;;;;;;8.45;6.57;;;;;;;16.28;58.41;94606.34;5035065;28;20098;-73
2023/05/15 10:12:53;;;;;;;9.57;7.03;;;;;;;16.18;58.84;94614.34;5018814;28;20635;-73
2023/05/15 10:15:20;;;;;;;9.85;6.82;;;;;;;15.95;59.48;94588.03;5052039;28;20036;-74
2023/05/15 10:17:49;;;;;;;10.70;7.32;;;;;;;16.24;59.50;94625.97;5051642;28;20039;-74
2023/05/15 10:20:16;;;;;;;12.43;7.22;;;;;;;16.24;59.91;94629.44;5018752;28;20383;-73
2023/05/15 10:22:45;;;;;;;8.85;6.72;;;;;;;16.04;58.52;94626.31;5035012;28;20020;-73
2023/05/15 10:25:20;;;;;;;11.07;7.60;;;;;;;16.14;58.82;94636.66;5052914;28;20044;-74
2023/05/15 10:27:46;;;;;;;9.25;7.30;;;;;;;16.20;59.90;94622.06;5052729;28;20017;-73
2023/05/15 10:30:12;;;;;;;11.20;7.25;;;;;;;16.13;59.25;94627.16;5051628;28;20039;-74
2023/05/15 10:32:37;;;;;;;12.40;8.98;;;;;;;16.23;59.73;94640.06;5018101;28;20017;-74
2023/05/15 10:35:03;;;;;;;11.82;8.07;;;;;;;16.25;59.68;94625.81;5035142;28;20055;-74
2023/05/15 10:37:29;;;;;;;10.27;8.48;;;;;;;16.48;60.75;94641.66;5018201;28;20043;-74
2023/05/15 10:39:54;;;;;;;14.15;9.20;;;;;;;15.98;62.63;94632.22;5034927;28;20037;-74
2023/05/15 10:42:20;;;;;;;12.10;8.50;;;;;;;16.07;61.48;94648.75;5034534;28;20479;-73
2023/05/15 10:44:46;;;;;;;10.20;8.90;;;;;;;16.09;61.23;94637.13;5034781;28;20040;-74
2023/05/15 10:47:11;;;;;;;12.40;9.43;;;;;;;16.08;62.53;94639.94;5034599;28;20040;-74
2023/05/15 10:49:37;;;;;;;12.25;9.45;;;;;;;15.82;64.14;94655.78;5034419;28;20431;-73
2023/05/15 10:52:02;;;;;;;11.68;9.57;;;;;;;15.89;62.87;94654.19;5017715;28;20025;-74
2023/05/15 10:54:28;;;;;;;12.85;9.25;;;;;;;15.61;61.79;94659.69;5050386;28;20423;-74
2023/05/15 10:56:57;;;;;;;12.20;9.40;;;;;;;15.58;62.40;94657.38;5034366;28;20036;-72
2023/05/15 10:59:29;;;;;;;12.27;9.23;;;;;;;15.58;62.55;94657.38;5034504;28;20041;-73
2023/05/15 11:01:55;;;;;;;12.75;8.90;;;;;;;15.53;62.98;94662.28;5050903;28;20021;-73
2023/05/15 11:04:22;;;;;;;13.25;9.57;;;;;;;15.71;62.65;94666.59;5034228;28;20060;-74
2023/05/15 11:06:48;;;;;;;12.43;10.13;;;;;;;15.63;62.27;94657.72;5034446;28;20020;-73
2023/05/15 11:09:25;;;;;;;12.50;9.82;;;;;;;15.69;62.33;94658.09;5050468;28;20079;-73
2023/05/15 11:11:51;;;;;;;16.48;9.70;;;;;;;15.64;62.53;94667.22;5050615;28;20491;-75
2023/05/15 11:14:17;;;;;;;12.23;9.52;;;;;;;15.67;62.92;94671.31;5052206;28;20104;-72
2023/05/15 11:16:54;;;;;;;12.15;9.15;;;;;;;15.77;62.70;94671.22;5051397;28;20498;-72
2023/05/15 11:19:31;;;;;;;13.35;8.98;;;;;;;15.80;61.39;94663.84;5051808;28;20084;-72
2023/05/15 11:22:02;;;;;;;16.63;9.80;;;;;;;15.70;61.39;94663.16;5050067;28;20033;-72
2023/05/15 11:24:32;;;;;;;13.00;9.07;;;;;;;15.39;63.21;94657.69;5050377;28;20039;-72
2023/05/15 11:27:01;;;;;;;16.00;9.73;;;;;;;15.42;64.56;94654.75;5051233;28;20063;-72
2023/05/15 11:29:26;;;;;;;13.93;8.88;;;;;;;15.04;64.59;94646.44;5050080;28;20475;-72
2023/05/15 11:31:52;;;;;;;12.95;9.45;;;;;;;15.15;64.46;94648.75;5033376;28;20048;-73
2023/05/15 11:34:31;;;;;;;11.38;8.90;;;;;;;15.23;64.78;94657.63;5050066;28;20203;-72